sensor_id;sensor_type;location;lat;lon;timestamp;P1;durP1;ratioP1;P2;durP2;ratioP2
59416;SDS011;45222;52.458;20.914;2023-03-20T00:02:10;65.90;;;51.40;;
59416;SDS011;45222;52.458;20.914;2023-03-20T00:06:03;67.10;;;33.10;;
59416;SDS011;45222;52.458;20.914;2023-03-20T00:09:48;64.50;;;51.50;;
59416;SDS011;45222;52.458;20.914;2023-03-20T00:13:34;65.50;;;52.80;;
59416;SDS011;45222;52.458;20.914;2023-03-20T00:17:20;65.70;;;51.00;;
59416;SDS011;45222;52.458;20.914;2023-03-20T00:21:07;63.60;;;47.20;;
59416;SDS011;45222;52.458;20.914;2023-03-20T00:24:58;60.00;;;47.40;;
59416;SDS011;45222;52.458;20.914;2023-03-20T00:28:43;57.10;;;46.80;;
59416;SDS011;45222;52.458;20.914;2023-03-20T00:32:30;61.40;;;32.00;;
59416;SDS011;45222;52.458;20.914;2023-03-20T00:36:15;69.40;;;33.30;;
59416;SDS011;45222;52.458;20.914;2023-03-20T00:40:01;60.90;;;48.00;;
59416;SDS011;45222;52.458;20.914;2023-03-20T00:43:47;56.40;;;45.40;;
59416;SDS011;45222;52.458;20.914;2023-03-20T00:47:35;57.30;;;28.80;;
59416;SDS011;45222;52.458;20.914;2023-03-20T00:51:24;54.10;;;28.50;;
59416;SDS011;45222;52.458;20.914;2023-03-20T00:55:09;59.00;;;47.40;;
59416;SDS011;45222;52.458;20.914;2023-03-20T00:58:54;57.50;;;28.70;;
59416;SDS011;45222;52.458;20.914;2023-03-20T01:02:40;59.90;;;30.40;;
59416;SDS011;45222;52.458;20.914;2023-03-20T01:06:25;58.70;;;45.60;;
59416;SDS011;45222;52.458;20.914;2023-03-20T01:10:11;61.60;;;47.20;;
59416;SDS011;45222;52.458;20.914;2023-03-20T01:13:57;62.40;;;47.60;;
59416;SDS011;45222;52.458;20.914;2023-03-20T01:17:42;61.50;;;47.30;;
59416;SDS011;45222;52.458;20.914;2023-03-20T01:21:27;64.80;;;50.60;;
59416;SDS011;45222;52.458;20.914;2023-03-20T01:25:12;67.60;;;52.00;;
59416;SDS011;45222;52.458;20.914;2023-03-20T01:28:58;64.50;;;46.40;;
59416;SDS011;45222;52.458;20.914;2023-03-20T01:32:43;70.70;;;29.20;;
59416;SDS011;45222;52.458;20.914;2023-03-20T01:36:29;71.00;;;47.30;;
59416;SDS011;45222;52.458;20.914;2023-03-20T01:40:21;74.30;;;48.60;;
59416;SDS011;45222;52.458;20.914;2023-03-20T01:44:18;71.20;;;49.60;;
59416;SDS011;45222;52.458;20.914;2023-03-20T01:48:11;69.90;;;48.70;;
59416;SDS011;45222;52.458;20.914;2023-03-20T01:51:59;63.50;;;29.00;;
59416;SDS011;45222;52.458;20.914;2023-03-20T01:55:44;68.20;;;49.60;;
59416;SDS011;45222;52.458;20.914;2023-03-20T01:59:32;64.80;;;46.30;;
59416;SDS011;45222;52.458;20.914;2023-03-20T02:07:05;59.50;;;44.80;;
59416;SDS011;45222;52.458;20.914;2023-03-20T02:10:53;65.50;;;48.90;;
59416;SDS011;45222;52.458;20.914;2023-03-20T02:14:39;64.00;;;48.80;;
59416;SDS011;45222;52.458;20.914;2023-03-20T02:18:26;65.30;;;30.50;;
59416;SDS011;45222;52.458;20.914;2023-03-20T02:22:23;59.90;;;29.00;;
59416;SDS011;45222;52.458;20.914;2023-03-20T02:30:42;73.80;;;55.40;;
59416;SDS011;45222;52.458;20.914;2023-03-20T02:34:41;69.50;;;32.60;;
59416;SDS011;45222;52.458;20.914;2023-03-20T02:43:14;64.90;;;31.30;;
59416;SDS011;45222;52.458;20.914;2023-03-20T02:47:06;81.70;;;59.70;;
59416;SDS011;45222;52.458;20.914;2023-03-20T02:50:57;77.90;;;56.30;;
59416;SDS011;45222;52.458;20.914;2023-03-20T02:54:47;84.20;;;60.90;;
59416;SDS011;45222;52.458;20.914;2023-03-20T02:58:45;75.00;;;31.70;;
59416;SDS011;45222;52.458;20.914;2023-03-20T03:02:34;75.30;;;54.90;;
59416;SDS011;45222;52.458;20.914;2023-03-20T03:06:23;66.30;;;30.00;;
59416;SDS011;45222;52.458;20.914;2023-03-20T03:10:12;71.00;;;50.10;;
59416;SDS011;45222;52.458;20.914;2023-03-20T03:14:03;70.70;;;50.80;;
59416;SDS011;45222;52.458;20.914;2023-03-20T03:17:49;71.40;;;32.80;;
59416;SDS011;45222;52.458;20.914;2023-03-20T03:21:35;71.60;;;33.40;;
59416;SDS011;45222;52.458;20.914;2023-03-20T03:25:23;71.40;;;32.00;;
59416;SDS011;45222;52.458;20.914;2023-03-20T03:29:11;69.30;;;53.60;;
59416;SDS011;45222;52.458;20.914;2023-03-20T03:36:54;75.10;;;54.30;;
59416;SDS011;45222;52.458;20.914;2023-03-20T03:40:48;71.50;;;31.90;;
59416;SDS011;45222;52.458;20.914;2023-03-20T03:44:46;73.80;;;50.20;;
59416;SDS011;45222;52.458;20.914;2023-03-20T03:48:39;66.30;;;29.70;;
59416;SDS011;45222;52.458;20.914;2023-03-20T03:52:30;71.20;;;32.60;;
59416;SDS011;45222;52.458;20.914;2023-03-20T03:56:19;70.00;;;50.00;;
59416;SDS011;45222;52.458;20.914;2023-03-20T04:03:54;74.80;;;54.10;;
59416;SDS011;45222;52.458;20.914;2023-03-20T04:07:44;66.30;;;32.10;;
59416;SDS011;45222;52.458;20.914;2023-03-20T04:11:30;87.50;;;59.20;;
59416;SDS011;45222;52.458;20.914;2023-03-20T04:15:15;74.40;;;54.20;;
59416;SDS011;45222;52.458;20.914;2023-03-20T04:19:02;69.50;;;51.60;;
59416;SDS011;45222;52.458;20.914;2023-03-20T04:22:47;73.90;;;32.90;;
59416;SDS011;45222;52.458;20.914;2023-03-20T04:26:32;73.30;;;53.00;;
59416;SDS011;45222;52.458;20.914;2023-03-20T04:30:19;64.70;;;31.10;;
59416;SDS011;45222;52.458;20.914;2023-03-20T04:34:09;70.80;;;33.10;;
59416;SDS011;45222;52.458;20.914;2023-03-20T04:37:54;71.70;;;54.50;;
59416;SDS011;45222;52.458;20.914;2023-03-20T04:41:39;69.60;;;32.30;;
59416;SDS011;45222;52.458;20.914;2023-03-20T04:45:24;73.50;;;56.20;;
59416;SDS011;45222;52.458;20.914;2023-03-20T04:49:09;75.20;;;52.40;;
59416;SDS011;45222;52.458;20.914;2023-03-20T04:52:54;67.50;;;48.60;;
59416;SDS011;45222;52.458;20.914;2023-03-20T04:56:39;65.80;;;29.80;;
59416;SDS011;45222;52.458;20.914;2023-03-20T05:00:24;73.90;;;32.60;;
59416;SDS011;45222;52.458;20.914;2023-03-20T05:04:09;68.50;;;32.80;;
59416;SDS011;45222;52.458;20.914;2023-03-20T05:07:54;76.10;;;55.40;;
59416;SDS011;45222;52.458;20.914;2023-03-20T05:11:40;77.80;;;55.30;;
59416;SDS011;45222;52.458;20.914;2023-03-20T05:15:25;87.80;;;65.70;;
59416;SDS011;45222;52.458;20.914;2023-03-20T05:19:10;83.30;;;57.60;;
59416;SDS011;45222;52.458;20.914;2023-03-20T05:22:55;71.20;;;53.00;;
59416;SDS011;45222;52.458;20.914;2023-03-20T05:26:40;76.10;;;54.80;;
59416;SDS011;45222;52.458;20.914;2023-03-20T05:30:25;78.00;;;56.10;;
59416;SDS011;45222;52.458;20.914;2023-03-20T05:34:11;79.10;;;56.60;;
59416;SDS011;45222;52.458;20.914;2023-03-20T05:37:56;82.60;;;59.60;;
59416;SDS011;45222;52.458;20.914;2023-03-20T05:41:41;83.30;;;61.20;;
59416;SDS011;45222;52.458;20.914;2023-03-20T05:45:26;84.00;;;62.10;;
59416;SDS011;45222;52.458;20.914;2023-03-20T05:49:11;88.40;;;66.20;;
59416;SDS011;45222;52.458;20.914;2023-03-20T05:52:56;97.80;;;42.60;;
59416;SDS011;45222;52.458;20.914;2023-03-20T05:56:41;91.20;;;65.90;;
59416;SDS011;45222;52.458;20.914;2023-03-20T06:00:26;85.70;;;63.10;;
59416;SDS011;45222;52.458;20.914;2023-03-20T06:04:11;82.20;;;59.80;;
59416;SDS011;45222;52.458;20.914;2023-03-20T06:07:56;86.90;;;58.70;;
59416;SDS011;45222;52.458;20.914;2023-03-20T06:11:41;75.70;;;56.50;;
59416;SDS011;45222;52.458;20.914;2023-03-20T06:15:26;79.80;;;58.70;;
59416;SDS011;45222;52.458;20.914;2023-03-20T06:19:11;81.50;;;60.80;;
59416;SDS011;45222;52.458;20.914;2023-03-20T06:22:56;84.50;;;64.80;;
59416;SDS011;45222;52.458;20.914;2023-03-20T06:26:42;77.80;;;60.70;;
59416;SDS011;45222;52.458;20.914;2023-03-20T06:30:27;84.80;;;60.20;;
59416;SDS011;45222;52.458;20.914;2023-03-20T06:34:12;77.60;;;60.10;;
59416;SDS011;45222;52.458;20.914;2023-03-20T06:37:57;79.40;;;60.70;;
59416;SDS011;45222;52.458;20.914;2023-03-20T06:41:43;81.80;;;62.10;;
59416;SDS011;45222;52.458;20.914;2023-03-20T06:45:28;77.40;;;60.70;;
59416;SDS011;45222;52.458;20.914;2023-03-20T06:49:13;77.40;;;60.50;;
59416;SDS011;45222;52.458;20.914;2023-03-20T06:52:59;76.30;;;60.40;;
59416;SDS011;45222;52.458;20.914;2023-03-20T06:56:44;85.30;;;42.20;;
59416;SDS011;45222;52.458;20.914;2023-03-20T07:00:29;74.00;;;55.90;;
59416;SDS011;45222;52.458;20.914;2023-03-20T07:04:15;77.70;;;58.80;;
59416;SDS011;45222;52.458;20.914;2023-03-20T07:08:00;73.50;;;58.90;;
59416;SDS011;45222;52.458;20.914;2023-03-20T07:11:45;78.30;;;59.80;;
59416;SDS011;45222;52.458;20.914;2023-03-20T07:15:30;80.40;;;62.50;;
59416;SDS011;45222;52.458;20.914;2023-03-20T07:19:15;84.80;;;62.10;;
59416;SDS011;45222;52.458;20.914;2023-03-20T07:23:02;76.70;;;61.80;;
59416;SDS011;45222;52.458;20.914;2023-03-20T07:26:47;78.80;;;61.90;;
59416;SDS011;45222;52.458;20.914;2023-03-20T07:30:32;76.40;;;60.80;;
59416;SDS011;45222;52.458;20.914;2023-03-20T07:34:17;82.30;;;60.60;;
59416;SDS011;45222;52.458;20.914;2023-03-20T07:38:02;72.50;;;58.70;;
59416;SDS011;45222;52.458;20.914;2023-03-20T07:41:48;72.30;;;57.70;;
59416;SDS011;45222;52.458;20.914;2023-03-20T07:45:33;76.30;;;58.30;;
59416;SDS011;45222;52.458;20.914;2023-03-20T07:49:19;72.00;;;56.90;;
59416;SDS011;45222;52.458;20.914;2023-03-20T07:53:06;74.40;;;56.90;;
59416;SDS011;45222;52.458;20.914;2023-03-20T07:56:51;65.10;;;52.90;;
59416;SDS011;45222;52.458;20.914;2023-03-20T08:00:36;66.40;;;55.20;;
59416;SDS011;45222;52.458;20.914;2023-03-20T08:04:22;64.50;;;51.70;;
59416;SDS011;45222;52.458;20.914;2023-03-20T08:08:07;67.00;;;53.70;;
59416;SDS011;45222;52.458;20.914;2023-03-20T08:11:52;64.00;;;52.40;;
59416;SDS011;45222;52.458;20.914;2023-03-20T08:15:37;59.60;;;50.40;;
59416;SDS011;45222;52.458;20.914;2023-03-20T08:19:22;61.30;;;50.00;;
59416;SDS011;45222;52.458;20.914;2023-03-20T08:23:07;59.70;;;50.10;;
59416;SDS011;45222;52.458;20.914;2023-03-20T08:26:52;58.50;;;48.40;;
59416;SDS011;45222;52.458;20.914;2023-03-20T08:30:37;55.50;;;45.10;;
59416;SDS011;45222;52.458;20.914;2023-03-20T08:34:22;55.20;;;45.10;;
59416;SDS011;45222;52.458;20.914;2023-03-20T08:38:09;53.40;;;43.10;;
59416;SDS011;45222;52.458;20.914;2023-03-20T08:41:55;46.80;;;39.20;;
59416;SDS011;45222;52.458;20.914;2023-03-20T08:45:40;50.70;;;41.00;;
59416;SDS011;45222;52.458;20.914;2023-03-20T08:49:25;42.70;;;37.60;;
59416;SDS011;45222;52.458;20.914;2023-03-20T08:53:10;45.80;;;36.60;;
59416;SDS011;45222;52.458;20.914;2023-03-20T08:56:55;41.40;;;35.70;;
59416;SDS011;45222;52.458;20.914;2023-03-20T09:00:40;38.20;;;33.90;;
59416;SDS011;45222;52.458;20.914;2023-03-20T09:04:26;36.50;;;31.70;;
59416;SDS011;45222;52.458;20.914;2023-03-20T09:08:11;33.50;;;28.30;;
59416;SDS011;45222;52.458;20.914;2023-03-20T09:11:57;35.70;;;30.00;;
59416;SDS011;45222;52.458;20.914;2023-03-20T09:15:42;34.40;;;28.30;;
59416;SDS011;45222;52.458;20.914;2023-03-20T09:19:28;35.20;;;28.60;;
59416;SDS011;45222;52.458;20.914;2023-03-20T09:23:13;30.20;;;25.80;;
59416;SDS011;45222;52.458;20.914;2023-03-20T09:26:58;28.10;;;24.50;;
59416;SDS011;45222;52.458;20.914;2023-03-20T09:30:43;29.80;;;24.60;;
59416;SDS011;45222;52.458;20.914;2023-03-20T09:34:29;25.40;;;21.90;;
59416;SDS011;45222;52.458;20.914;2023-03-20T09:38:14;31.40;;;23.40;;
59416;SDS011;45222;52.458;20.914;2023-03-20T09:42:01;25.00;;;20.80;;
59416;SDS011;45222;52.458;20.914;2023-03-20T09:45:53;29.80;;;22.60;;
59416;SDS011;45222;52.458;20.914;2023-03-20T09:49:49;25.50;;;19.90;;
59416;SDS011;45222;52.458;20.914;2023-03-20T09:53:44;29.10;;;23.00;;
59416;SDS011;45222;52.458;20.914;2023-03-20T09:57:34;29.00;;;21.90;;
59416;SDS011;45222;52.458;20.914;2023-03-20T10:01:23;31.90;;;23.50;;
59416;SDS011;45222;52.458;20.914;2023-03-20T10:05:16;33.80;;;26.50;;
59416;SDS011;45222;52.458;20.914;2023-03-20T10:09:09;33.80;;;28.10;;
59416;SDS011;45222;52.458;20.914;2023-03-20T10:13:01;36.90;;;29.10;;
59416;SDS011;45222;52.458;20.914;2023-03-20T10:17:05;33.50;;;27.80;;
59416;SDS011;45222;52.458;20.914;2023-03-20T10:21:02;32.30;;;27.40;;
59416;SDS011;45222;52.458;20.914;2023-03-20T10:24:56;31.80;;;26.10;;
59416;SDS011;45222;52.458;20.914;2023-03-20T10:28:52;37.80;;;26.00;;
59416;SDS011;45222;52.458;20.914;2023-03-20T10:32:41;35.30;;;28.20;;
59416;SDS011;45222;52.458;20.914;2023-03-20T10:36:35;35.30;;;28.50;;
59416;SDS011;45222;52.458;20.914;2023-03-20T10:40:30;34.10;;;29.40;;
59416;SDS011;45222;52.458;20.914;2023-03-20T10:44:20;38.40;;;29.20;;
59416;SDS011;45222;52.458;20.914;2023-03-20T10:48:14;38.10;;;30.50;;
59416;SDS011;45222;52.458;20.914;2023-03-20T10:52:04;36.10;;;29.00;;
59416;SDS011;45222;52.458;20.914;2023-03-20T10:55:56;39.40;;;32.90;;
59416;SDS011;45222;52.458;20.914;2023-03-20T10:59:45;39.60;;;32.80;;
59416;SDS011;45222;52.458;20.914;2023-03-20T11:03:33;39.50;;;33.80;;
59416;SDS011;45222;52.458;20.914;2023-03-20T11:07:23;40.20;;;33.10;;
59416;SDS011;45222;52.458;20.914;2023-03-20T11:14:58;37.20;;;29.60;;
59416;SDS011;45222;52.458;20.914;2023-03-20T11:18:47;31.70;;;25.20;;
59416;SDS011;45222;52.458;20.914;2023-03-20T11:22:39;34.70;;;26.20;;
59416;SDS011;45222;52.458;20.914;2023-03-20T11:26:31;37.30;;;26.70;;
59416;SDS011;45222;52.458;20.914;2023-03-20T11:30:19;35.50;;;26.60;;
59416;SDS011;45222;52.458;20.914;2023-03-20T11:34:18;36.40;;;24.70;;
59416;SDS011;45222;52.458;20.914;2023-03-20T11:38:11;27.70;;;20.70;;
59416;SDS011;45222;52.458;20.914;2023-03-20T11:41:59;33.40;;;20.00;;
59416;SDS011;45222;52.458;20.914;2023-03-20T11:45:46;23.30;;;18.10;;
59416;SDS011;45222;52.458;20.914;2023-03-20T11:49:33;28.10;;;19.40;;
59416;SDS011;45222;52.458;20.914;2023-03-20T11:53:33;24.60;;;19.00;;
59416;SDS011;45222;52.458;20.914;2023-03-20T11:57:32;24.90;;;18.10;;
59416;SDS011;45222;52.458;20.914;2023-03-20T12:01:20;25.90;;;19.20;;
59416;SDS011;45222;52.458;20.914;2023-03-20T12:05:17;27.00;;;20.70;;
59416;SDS011;45222;52.458;20.914;2023-03-20T12:09:20;30.30;;;20.80;;
59416;SDS011;45222;52.458;20.914;2023-03-20T12:13:13;30.90;;;24.10;;
59416;SDS011;45222;52.458;20.914;2023-03-20T12:17:12;28.10;;;22.40;;
59416;SDS011;45222;52.458;20.914;2023-03-20T12:21:19;28.80;;;23.40;;
59416;SDS011;45222;52.458;20.914;2023-03-20T12:25:15;31.10;;;23.90;;
59416;SDS011;45222;52.458;20.914;2023-03-20T12:29:05;35.10;;;24.30;;
59416;SDS011;45222;52.458;20.914;2023-03-20T12:32:57;30.30;;;24.30;;
59416;SDS011;45222;52.458;20.914;2023-03-20T12:36:47;34.50;;;27.60;;
59416;SDS011;45222;52.458;20.914;2023-03-20T12:40:38;31.60;;;26.90;;
59416;SDS011;45222;52.458;20.914;2023-03-20T12:44:29;33.70;;;27.30;;
59416;SDS011;45222;52.458;20.914;2023-03-20T12:48:31;38.90;;;27.20;;
59416;SDS011;45222;52.458;20.914;2023-03-20T12:52:25;30.40;;;25.20;;
59416;SDS011;45222;52.458;20.914;2023-03-20T12:56:23;19.90;;;15.70;;
59416;SDS011;45222;52.458;20.914;2023-03-20T13:00:17;19.60;;;16.40;;
59416;SDS011;45222;52.458;20.914;2023-03-20T13:08:32;17.60;;;14.90;;
59416;SDS011;45222;52.458;20.914;2023-03-20T13:12:38;19.90;;;16.00;;
59416;SDS011;45222;52.458;20.914;2023-03-20T13:16:32;18.20;;;15.80;;
59416;SDS011;45222;52.458;20.914;2023-03-20T13:20:29;20.50;;;17.60;;
59416;SDS011;45222;52.458;20.914;2023-03-20T13:24:21;22.40;;;20.00;;
59416;SDS011;45222;52.458;20.914;2023-03-20T13:28:16;23.10;;;20.40;;
59416;SDS011;45222;52.458;20.914;2023-03-20T13:32:11;23.20;;;20.70;;
59416;SDS011;45222;52.458;20.914;2023-03-20T13:36:08;28.90;;;25.20;;
59416;SDS011;45222;52.458;20.914;2023-03-20T13:40:11;27.70;;;24.80;;
59416;SDS011;45222;52.458;20.914;2023-03-20T13:44:03;27.10;;;23.30;;
59416;SDS011;45222;52.458;20.914;2023-03-20T13:47:52;25.50;;;22.80;;
59416;SDS011;45222;52.458;20.914;2023-03-20T13:51:40;26.70;;;23.90;;
59416;SDS011;45222;52.458;20.914;2023-03-20T13:55:34;24.30;;;21.70;;
59416;SDS011;45222;52.458;20.914;2023-03-20T13:59:37;22.70;;;20.20;;
59416;SDS011;45222;52.458;20.914;2023-03-20T14:03:32;23.10;;;20.60;;
59416;SDS011;45222;52.458;20.914;2023-03-20T14:07:29;27.20;;;23.80;;
59416;SDS011;45222;52.458;20.914;2023-03-20T14:11:26;28.80;;;24.80;;
59416;SDS011;45222;52.458;20.914;2023-03-20T14:19:06;28.30;;;25.30;;
59416;SDS011;45222;52.458;20.914;2023-03-20T14:22:59;25.20;;;21.80;;
59416;SDS011;45222;52.458;20.914;2023-03-20T14:26:46;29.00;;;25.90;;
59416;SDS011;45222;52.458;20.914;2023-03-20T14:30:38;19.80;;;16.50;;
59416;SDS011;45222;52.458;20.914;2023-03-20T14:34:26;11.30;;;8.00;;
59416;SDS011;45222;52.458;20.914;2023-03-20T14:38:27;9.70;;;6.90;;
59416;SDS011;45222;52.458;20.914;2023-03-20T14:42:25;9.30;;;6.00;;
59416;SDS011;45222;52.458;20.914;2023-03-20T14:46:21;9.60;;;6.40;;
59416;SDS011;45222;52.458;20.914;2023-03-20T14:50:12;12.60;;;8.10;;
59416;SDS011;45222;52.458;20.914;2023-03-20T14:54:22;11.50;;;7.70;;
59416;SDS011;45222;52.458;20.914;2023-03-20T15:02:24;11.10;;;8.90;;
59416;SDS011;45222;52.458;20.914;2023-03-20T15:06:15;13.10;;;9.70;;
59416;SDS011;45222;52.458;20.914;2023-03-20T15:10:04;15.60;;;11.40;;
59416;SDS011;45222;52.458;20.914;2023-03-20T15:13:51;19.50;;;14.60;;
59416;SDS011;45222;52.458;20.914;2023-03-20T15:17:38;21.30;;;16.30;;
59416;SDS011;45222;52.458;20.914;2023-03-20T15:21:28;16.40;;;11.70;;
59416;SDS011;45222;52.458;20.914;2023-03-20T15:25:16;15.80;;;12.80;;
59416;SDS011;45222;52.458;20.914;2023-03-20T15:29:02;16.40;;;13.30;;
59416;SDS011;45222;52.458;20.914;2023-03-20T15:32:51;15.60;;;13.50;;
59416;SDS011;45222;52.458;20.914;2023-03-20T15:36:38;14.10;;;11.10;;
59416;SDS011;45222;52.458;20.914;2023-03-20T15:40:24;15.50;;;10.90;;
59416;SDS011;45222;52.458;20.914;2023-03-20T15:44:18;16.80;;;11.80;;
59416;SDS011;45222;52.458;20.914;2023-03-20T15:48:05;15.80;;;12.80;;
59416;SDS011;45222;52.458;20.914;2023-03-20T15:51:52;16.90;;;13.80;;
59416;SDS011;45222;52.458;20.914;2023-03-20T15:55:41;15.80;;;12.80;;
59416;SDS011;45222;52.458;20.914;2023-03-20T15:59:32;19.80;;;14.00;;
59416;SDS011;45222;52.458;20.914;2023-03-20T16:03:18;16.80;;;12.30;;
59416;SDS011;45222;52.458;20.914;2023-03-20T16:07:17;15.90;;;12.30;;
59416;SDS011;45222;52.458;20.914;2023-03-20T16:11:05;16.00;;;13.30;;
59416;SDS011;45222;52.458;20.914;2023-03-20T16:14:55;15.30;;;12.30;;
59416;SDS011;45222;52.458;20.914;2023-03-20T16:18:42;14.90;;;11.90;;
59416;SDS011;45222;52.458;20.914;2023-03-20T16:25:45;14.50;;;10.60;;
59416;SDS011;45222;52.458;20.914;2023-03-20T16:29:33;15.20;;;11.90;;
59416;SDS011;45222;52.458;20.914;2023-03-20T16:33:22;22.30;;;17.60;;
59416;SDS011;45222;52.458;20.914;2023-03-20T16:37:21;20.70;;;17.70;;
59416;SDS011;45222;52.458;20.914;2023-03-20T16:41:14;26.10;;;18.60;;
59416;SDS011;45222;52.458;20.914;2023-03-20T16:49:18;25.60;;;19.70;;
59416;SDS011;45222;52.458;20.914;2023-03-20T16:53:50;25.10;;;18.90;;
59416;SDS011;45222;52.458;20.914;2023-03-20T16:57:41;19.50;;;15.30;;
59416;SDS011;45222;52.458;20.914;2023-03-20T17:01:36;18.00;;;15.20;;
59416;SDS011;45222;52.458;20.914;2023-03-20T17:05:47;17.50;;;13.90;;
59416;SDS011;45222;52.458;20.914;2023-03-20T17:09:39;16.50;;;13.80;;
59416;SDS011;45222;52.458;20.914;2023-03-20T17:13:40;16.60;;;12.40;;
59416;SDS011;45222;52.458;20.914;2023-03-20T17:17:28;17.00;;;14.90;;
59416;SDS011;45222;52.458;20.914;2023-03-20T17:21:16;17.40;;;14.90;;
59416;SDS011;45222;52.458;20.914;2023-03-20T17:25:04;22.90;;;18.00;;
59416;SDS011;45222;52.458;20.914;2023-03-20T17:28:55;19.00;;;15.00;;
59416;SDS011;45222;52.458;20.914;2023-03-20T17:32:43;15.90;;;14.10;;
59416;SDS011;45222;52.458;20.914;2023-03-20T17:36:31;21.20;;;17.00;;
59416;SDS011;45222;52.458;20.914;2023-03-20T17:40:21;27.10;;;21.60;;
59416;SDS011;45222;52.458;20.914;2023-03-20T17:44:10;31.60;;;27.60;;
59416;SDS011;45222;52.458;20.914;2023-03-20T17:47:58;29.70;;;26.30;;
59416;SDS011;45222;52.458;20.914;2023-03-20T17:51:46;24.10;;;20.60;;
59416;SDS011;45222;52.458;20.914;2023-03-20T17:55:34;25.20;;;19.80;;
59416;SDS011;45222;52.458;20.914;2023-03-20T17:59:23;32.60;;;22.30;;
59416;SDS011;45222;52.458;20.914;2023-03-20T18:03:14;32.50;;;23.10;;
59416;SDS011;45222;52.458;20.914;2023-03-20T18:07:03;34.30;;;24.40;;
59416;SDS011;45222;52.458;20.914;2023-03-20T18:10:51;47.40;;;35.40;;
59416;SDS011;45222;52.458;20.914;2023-03-20T18:14:39;42.40;;;32.40;;
59416;SDS011;45222;52.458;20.914;2023-03-20T18:18:28;40.60;;;31.20;;
59416;SDS011;45222;52.458;20.914;2023-03-20T18:22:16;38.50;;;29.50;;
59416;SDS011;45222;52.458;20.914;2023-03-20T18:26:05;33.90;;;26.50;;
59416;SDS011;45222;52.458;20.914;2023-03-20T18:30:02;36.20;;;29.00;;
59416;SDS011;45222;52.458;20.914;2023-03-20T18:33:58;30.10;;;25.10;;
59416;SDS011;45222;52.458;20.914;2023-03-20T18:37:46;34.30;;;30.40;;
59416;SDS011;45222;52.458;20.914;2023-03-20T18:41:34;27.20;;;24.20;;
59416;SDS011;45222;52.458;20.914;2023-03-20T18:45:22;32.90;;;29.30;;
59416;SDS011;45222;52.458;20.914;2023-03-20T18:49:13;32.20;;;28.60;;
59416;SDS011;45222;52.458;20.914;2023-03-20T18:53:03;30.00;;;26.70;;
59416;SDS011;45222;52.458;20.914;2023-03-20T18:56:52;28.60;;;24.90;;
59416;SDS011;45222;52.458;20.914;2023-03-20T19:00:44;31.40;;;26.20;;
59416;SDS011;45222;52.458;20.914;2023-03-20T19:04:31;50.90;;;37.00;;
59416;SDS011;45222;52.458;20.914;2023-03-20T19:08:20;56.00;;;41.40;;
59416;SDS011;45222;52.458;20.914;2023-03-20T19:12:08;47.20;;;38.40;;
59416;SDS011;45222;52.458;20.914;2023-03-20T19:15:56;50.10;;;39.40;;
59416;SDS011;45222;52.458;20.914;2023-03-20T19:19:44;46.90;;;36.00;;
59416;SDS011;45222;52.458;20.914;2023-03-20T19:23:32;45.00;;;35.70;;
59416;SDS011;45222;52.458;20.914;2023-03-20T19:27:20;46.10;;;37.30;;
59416;SDS011;45222;52.458;20.914;2023-03-20T19:31:08;56.20;;;41.70;;
59416;SDS011;45222;52.458;20.914;2023-03-20T19:34:56;64.90;;;50.70;;
59416;SDS011;45222;52.458;20.914;2023-03-20T19:38:45;59.30;;;48.70;;
59416;SDS011;45222;52.458;20.914;2023-03-20T19:42:32;54.30;;;42.10;;
59416;SDS011;45222;52.458;20.914;2023-03-20T19:46:20;53.50;;;41.90;;
59416;SDS011;45222;52.458;20.914;2023-03-20T19:50:14;52.80;;;40.90;;
59416;SDS011;45222;52.458;20.914;2023-03-20T19:54:11;51.30;;;41.10;;
59416;SDS011;45222;52.458;20.914;2023-03-20T19:57:59;49.50;;;40.90;;
59416;SDS011;45222;52.458;20.914;2023-03-20T20:01:48;44.00;;;39.10;;
59416;SDS011;45222;52.458;20.914;2023-03-20T20:05:37;40.40;;;36.00;;
59416;SDS011;45222;52.458;20.914;2023-03-20T20:09:25;44.00;;;38.60;;
59416;SDS011;45222;52.458;20.914;2023-03-20T20:13:15;47.70;;;42.00;;
59416;SDS011;45222;52.458;20.914;2023-03-20T20:17:04;44.60;;;39.80;;
59416;SDS011;45222;52.458;20.914;2023-03-20T20:20:53;42.50;;;37.70;;
59416;SDS011;45222;52.458;20.914;2023-03-20T20:24:42;54.80;;;48.80;;
59416;SDS011;45222;52.458;20.914;2023-03-20T20:28:30;43.80;;;36.50;;
59416;SDS011;45222;52.458;20.914;2023-03-20T20:32:18;41.30;;;36.50;;
59416;SDS011;45222;52.458;20.914;2023-03-20T20:36:11;39.10;;;34.80;;
59416;SDS011;45222;52.458;20.914;2023-03-20T20:40:00;38.70;;;34.50;;
59416;SDS011;45222;52.458;20.914;2023-03-20T20:43:48;42.50;;;37.00;;
59416;SDS011;45222;52.458;20.914;2023-03-20T20:47:38;48.00;;;41.50;;
59416;SDS011;45222;52.458;20.914;2023-03-20T20:51:27;49.50;;;40.40;;
59416;SDS011;45222;52.458;20.914;2023-03-20T20:55:16;52.10;;;39.80;;
59416;SDS011;45222;52.458;20.914;2023-03-20T20:59:06;52.00;;;41.40;;
59416;SDS011;45222;52.458;20.914;2023-03-20T21:02:54;50.60;;;40.60;;
59416;SDS011;45222;52.458;20.914;2023-03-20T21:06:41;44.40;;;38.90;;
59416;SDS011;45222;52.458;20.914;2023-03-20T21:10:30;47.90;;;41.80;;
59416;SDS011;45222;52.458;20.914;2023-03-20T21:14:17;43.80;;;39.20;;
59416;SDS011;45222;52.458;20.914;2023-03-20T21:18:05;42.30;;;37.80;;
59416;SDS011;45222;52.458;20.914;2023-03-20T21:21:53;45.40;;;40.60;;
59416;SDS011;45222;52.458;20.914;2023-03-20T21:25:42;43.50;;;38.70;;
59416;SDS011;45222;52.458;20.914;2023-03-20T21:29:30;46.10;;;41.10;;
59416;SDS011;45222;52.458;20.914;2023-03-20T21:33:17;48.50;;;43.50;;
59416;SDS011;45222;52.458;20.914;2023-03-20T21:37:05;44.50;;;39.60;;
59416;SDS011;45222;52.458;20.914;2023-03-20T21:40:54;41.30;;;36.90;;
59416;SDS011;45222;52.458;20.914;2023-03-20T21:44:41;38.40;;;34.20;;
59416;SDS011;45222;52.458;20.914;2023-03-20T21:48:30;38.80;;;34.70;;
59416;SDS011;45222;52.458;20.914;2023-03-20T21:52:18;44.00;;;39.20;;
59416;SDS011;45222;52.458;20.914;2023-03-20T21:56:06;46.30;;;41.30;;
59416;SDS011;45222;52.458;20.914;2023-03-20T22:03:41;38.20;;;34.00;;
59416;SDS011;45222;52.458;20.914;2023-03-20T22:07:29;37.50;;;33.20;;
59416;SDS011;45222;52.458;20.914;2023-03-20T22:11:17;36.20;;;31.20;;
59416;SDS011;45222;52.458;20.914;2023-03-20T22:15:06;36.50;;;31.30;;
59416;SDS011;45222;52.458;20.914;2023-03-20T22:18:55;35.10;;;31.10;;
59416;SDS011;45222;52.458;20.914;2023-03-20T22:22:43;34.90;;;30.70;;
59416;SDS011;45222;52.458;20.914;2023-03-20T22:26:31;33.60;;;29.90;;
59416;SDS011;45222;52.458;20.914;2023-03-20T22:30:18;31.40;;;28.00;;
59416;SDS011;45222;52.458;20.914;2023-03-20T22:34:07;30.00;;;26.60;;
59416;SDS011;45222;52.458;20.914;2023-03-20T22:37:55;32.90;;;28.20;;
59416;SDS011;45222;52.458;20.914;2023-03-20T22:41:42;30.80;;;27.50;;
59416;SDS011;45222;52.458;20.914;2023-03-20T22:45:30;32.40;;;27.50;;
59416;SDS011;45222;52.458;20.914;2023-03-20T22:49:18;32.00;;;27.10;;